sensor_id;sensor_type;location;lat;lon;timestamp;P1;durP1;ratioP1;P2;durP2;ratioP2
8714;SDS011;4394;51.208;8.904;2023-02-18T00:02:48;10.00;;;7.87;;
8714;SDS011;4394;51.208;8.904;2023-02-18T00:05:38;9.17;;;7.80;;
8714;SDS011;4394;51.208;8.904;2023-02-18T00:08:25;10.80;;;7.93;;
8714;SDS011;4394;51.208;8.904;2023-02-18T00:11:14;10.13;;;7.97;;
8714;SDS011;4394;51.208;8.904;2023-02-18T00:14:03;10.70;;;8.17;;
8714;SDS011;4394;51.208;8.904;2023-02-18T00:16:52;10.97;;;7.80;;
8714;SDS011;4394;51.208;8.904;2023-02-18T00:19:42;10.70;;;7.60;;
8714;SDS011;4394;51.208;8.904;2023-02-18T00:22:30;8.97;;;7.63;;
8714;SDS011;4394;51.208;8.904;2023-02-18T00:25:18;10.20;;;7.40;;
8714;SDS011;4394;51.208;8.904;2023-02-18T00:28:05;11.87;;;7.83;;
8714;SDS011;4394;51.208;8.904;2023-02-18T00:30:54;11.27;;;8.63;;
8714;SDS011;4394;51.208;8.904;2023-02-18T00:33:42;12.20;;;8.50;;
8714;SDS011;4394;51.208;8.904;2023-02-18T00:36:31;10.87;;;8.17;;
8714;SDS011;4394;51.208;8.904;2023-02-18T00:39:20;11.97;;;8.37;;
8714;SDS011;4394;51.208;8.904;2023-02-18T00:42:08;11.00;;;8.63;;
8714;SDS011;4394;51.208;8.904;2023-02-18T00:44:55;10.67;;;7.73;;
8714;SDS011;4394;51.208;8.904;2023-02-18T00:47:43;11.30;;;8.47;;
8714;SDS011;4394;51.208;8.904;2023-02-18T00:50:31;12.37;;;8.77;;
8714;SDS011;4394;51.208;8.904;2023-02-18T00:53:20;11.23;;;8.60;;
8714;SDS011;4394;51.208;8.904;2023-02-18T00:56:08;11.83;;;8.60;;
8714;SDS011;4394;51.208;8.904;2023-02-18T00:58:57;11.63;;;8.97;;
8714;SDS011;4394;51.208;8.904;2023-02-18T01:01:44;11.97;;;9.07;;
8714;SDS011;4394;51.208;8.904;2023-02-18T01:04:32;10.03;;;8.17;;
8714;SDS011;4394;51.208;8.904;2023-02-18T01:07:20;11.63;;;7.93;;
8714;SDS011;4394;51.208;8.904;2023-02-18T01:10:10;10.17;;;8.20;;
8714;SDS011;4394;51.208;8.904;2023-02-18T01:12:58;10.67;;;8.00;;
8714;SDS011;4394;51.208;8.904;2023-02-18T01:15:46;10.37;;;7.70;;
8714;SDS011;4394;51.208;8.904;2023-02-18T01:18:34;9.50;;;7.23;;
8714;SDS011;4394;51.208;8.904;2023-02-18T01:21:22;9.43;;;6.90;;
8714;SDS011;4394;51.208;8.904;2023-02-18T01:24:10;7.90;;;6.27;;
8714;SDS011;4394;51.208;8.904;2023-02-18T01:26:59;8.77;;;6.37;;
8714;SDS011;4394;51.208;8.904;2023-02-18T01:29:47;7.80;;;6.07;;
8714;SDS011;4394;51.208;8.904;2023-02-18T01:32:35;9.90;;;6.63;;
8714;SDS011;4394;51.208;8.904;2023-02-18T01:35:23;8.00;;;6.30;;
8714;SDS011;4394;51.208;8.904;2023-02-18T01:38:11;7.37;;;5.67;;
8714;SDS011;4394;51.208;8.904;2023-02-18T01:40:59;8.37;;;6.20;;
8714;SDS011;4394;51.208;8.904;2023-02-18T01:47:04;7.30;;;5.43;;
8714;SDS011;4394;51.208;8.904;2023-02-18T01:49:52;6.97;;;5.00;;
8714;SDS011;4394;51.208;8.904;2023-02-18T01:52:40;5.77;;;5.10;;
8714;SDS011;4394;51.208;8.904;2023-02-18T01:55:28;8.50;;;5.33;;
8714;SDS011;4394;51.208;8.904;2023-02-18T01:58:16;6.50;;;5.17;;
8714;SDS011;4394;51.208;8.904;2023-02-18T02:01:06;5.90;;;4.97;;
8714;SDS011;4394;51.208;8.904;2023-02-18T02:03:55;6.93;;;5.27;;
8714;SDS011;4394;51.208;8.904;2023-02-18T02:06:43;6.60;;;5.13;;
8714;SDS011;4394;51.208;8.904;2023-02-18T02:09:31;7.07;;;5.33;;
8714;SDS011;4394;51.208;8.904;2023-02-18T02:12:28;8.23;;;5.97;;
8714;SDS011;4394;51.208;8.904;2023-02-18T02:15:29;6.57;;;5.00;;
8714;SDS011;4394;51.208;8.904;2023-02-18T02:18:27;6.63;;;5.23;;
8714;SDS011;4394;51.208;8.904;2023-02-18T02:21:39;6.13;;;4.50;;
8714;SDS011;4394;51.208;8.904;2023-02-18T02:24:56;6.07;;;4.57;;
8714;SDS011;4394;51.208;8.904;2023-02-18T02:34:48;5.40;;;4.17;;
8714;SDS011;4394;51.208;8.904;2023-02-18T02:37:40;5.17;;;4.53;;
8714;SDS011;4394;51.208;8.904;2023-02-18T02:40:34;5.27;;;3.97;;
8714;SDS011;4394;51.208;8.904;2023-02-18T02:43:30;5.00;;;4.00;;
8714;SDS011;4394;51.208;8.904;2023-02-18T02:46:25;4.27;;;3.53;;
8714;SDS011;4394;51.208;8.904;2023-02-18T02:49:23;5.23;;;4.07;;
8714;SDS011;4394;51.208;8.904;2023-02-18T02:52:22;4.73;;;3.33;;
8714;SDS011;4394;51.208;8.904;2023-02-18T02:55:14;4.17;;;3.50;;
8714;SDS011;4394;51.208;8.904;2023-02-18T02:58:02;5.30;;;3.47;;
8714;SDS011;4394;51.208;8.904;2023-02-18T03:01:14;4.00;;;3.10;;
8714;SDS011;4394;51.208;8.904;2023-02-18T03:04:12;4.30;;;3.40;;
8714;SDS011;4394;51.208;8.904;2023-02-18T03:10:42;3.77;;;3.23;;
8714;SDS011;4394;51.208;8.904;2023-02-18T03:13:44;4.73;;;3.67;;
8714;SDS011;4394;51.208;8.904;2023-02-18T03:16:44;4.50;;;3.47;;
8714;SDS011;4394;51.208;8.904;2023-02-18T03:19:36;5.63;;;3.33;;
8714;SDS011;4394;51.208;8.904;2023-02-18T03:22:28;3.67;;;3.07;;
8714;SDS011;4394;51.208;8.904;2023-02-18T03:25:20;3.80;;;3.20;;
8714;SDS011;4394;51.208;8.904;2023-02-18T03:28:10;4.30;;;3.37;;
8714;SDS011;4394;51.208;8.904;2023-02-18T03:31:02;3.60;;;3.03;;
8714;SDS011;4394;51.208;8.904;2023-02-18T03:33:56;4.43;;;3.30;;
8714;SDS011;4394;51.208;8.904;2023-02-18T03:36:48;5.30;;;3.83;;
8714;SDS011;4394;51.208;8.904;2023-02-18T03:39:36;5.40;;;4.00;;
8714;SDS011;4394;51.208;8.904;2023-02-18T03:42:29;4.63;;;3.67;;
8714;SDS011;4394;51.208;8.904;2023-02-18T03:45:17;5.20;;;3.77;;
8714;SDS011;4394;51.208;8.904;2023-02-18T03:48:05;5.20;;;4.37;;
8714;SDS011;4394;51.208;8.904;2023-02-18T03:50:54;5.60;;;3.80;;
8714;SDS011;4394;51.208;8.904;2023-02-18T03:53:42;6.43;;;3.80;;
8714;SDS011;4394;51.208;8.904;2023-02-18T03:56:29;5.93;;;4.40;;
8714;SDS011;4394;51.208;8.904;2023-02-18T03:59:19;6.03;;;4.20;;
8714;SDS011;4394;51.208;8.904;2023-02-18T04:02:08;5.70;;;4.30;;
8714;SDS011;4394;51.208;8.904;2023-02-18T04:04:56;6.10;;;4.07;;
8714;SDS011;4394;51.208;8.904;2023-02-18T04:07:44;5.17;;;3.90;;
8714;SDS011;4394;51.208;8.904;2023-02-18T04:10:32;5.50;;;4.07;;
8714;SDS011;4394;51.208;8.904;2023-02-18T04:13:20;6.47;;;4.23;;
8714;SDS011;4394;51.208;8.904;2023-02-18T04:16:09;6.53;;;4.27;;
8714;SDS011;4394;51.208;8.904;2023-02-18T04:18:57;5.70;;;4.67;;
8714;SDS011;4394;51.208;8.904;2023-02-18T04:21:45;5.50;;;4.20;;
8714;SDS011;4394;51.208;8.904;2023-02-18T04:24:33;6.50;;;4.67;;
8714;SDS011;4394;51.208;8.904;2023-02-18T04:27:21;7.67;;;4.83;;
8714;SDS011;4394;51.208;8.904;2023-02-18T04:30:09;6.87;;;5.33;;
8714;SDS011;4394;51.208;8.904;2023-02-18T04:32:59;6.03;;;5.03;;
8714;SDS011;4394;51.208;8.904;2023-02-18T04:35:49;6.53;;;5.10;;
8714;SDS011;4394;51.208;8.904;2023-02-18T04:38:37;6.50;;;5.20;;
8714;SDS011;4394;51.208;8.904;2023-02-18T04:41:25;6.93;;;5.17;;
8714;SDS011;4394;51.208;8.904;2023-02-18T04:44:12;7.83;;;5.77;;
8714;SDS011;4394;51.208;8.904;2023-02-18T04:47:00;7.37;;;5.17;;
8714;SDS011;4394;51.208;8.904;2023-02-18T04:49:49;7.93;;;5.97;;
8714;SDS011;4394;51.208;8.904;2023-02-18T04:52:37;7.50;;;5.63;;
8714;SDS011;4394;51.208;8.904;2023-02-18T04:55:25;6.47;;;5.10;;
8714;SDS011;4394;51.208;8.904;2023-02-18T04:58:13;6.50;;;4.80;;
8714;SDS011;4394;51.208;8.904;2023-02-18T05:01:01;6.23;;;4.87;;
8714;SDS011;4394;51.208;8.904;2023-02-18T05:03:50;5.57;;;4.33;;
8714;SDS011;4394;51.208;8.904;2023-02-18T05:06:40;5.83;;;4.30;;
8714;SDS011;4394;51.208;8.904;2023-02-18T05:09:28;6.53;;;4.37;;
8714;SDS011;4394;51.208;8.904;2023-02-18T05:12:16;5.83;;;4.43;;
8714;SDS011;4394;51.208;8.904;2023-02-18T05:15:04;6.20;;;4.47;;
8714;SDS011;4394;51.208;8.904;2023-02-18T05:17:52;5.43;;;4.80;;
8714;SDS011;4394;51.208;8.904;2023-02-18T05:20:40;5.70;;;4.23;;
8714;SDS011;4394;51.208;8.904;2023-02-18T05:23:31;5.50;;;4.50;;
8714;SDS011;4394;51.208;8.904;2023-02-18T05:26:18;5.90;;;3.77;;
8714;SDS011;4394;51.208;8.904;2023-02-18T05:29:06;4.70;;;4.00;;
8714;SDS011;4394;51.208;8.904;2023-02-18T05:31:54;7.07;;;4.30;;
8714;SDS011;4394;51.208;8.904;2023-02-18T05:34:42;4.30;;;3.67;;
8714;SDS011;4394;51.208;8.904;2023-02-18T05:37:30;5.70;;;3.87;;
8714;SDS011;4394;51.208;8.904;2023-02-18T05:40:19;4.17;;;3.40;;
8714;SDS011;4394;51.208;8.904;2023-02-18T05:43:07;3.80;;;3.10;;
8714;SDS011;4394;51.208;8.904;2023-02-18T05:45:55;3.67;;;3.20;;
8714;SDS011;4394;51.208;8.904;2023-02-18T05:48:43;3.53;;;2.80;;
8714;SDS011;4394;51.208;8.904;2023-02-18T05:51:34;2.77;;;2.40;;
8714;SDS011;4394;51.208;8.904;2023-02-18T05:54:22;4.30;;;2.50;;
8714;SDS011;4394;51.208;8.904;2023-02-18T05:57:11;3.87;;;2.67;;
8714;SDS011;4394;51.208;8.904;2023-02-18T05:59:59;2.57;;;2.20;;
8714;SDS011;4394;51.208;8.904;2023-02-18T06:02:47;2.63;;;2.20;;
8714;SDS011;4394;51.208;8.904;2023-02-18T06:05:35;2.47;;;2.03;;
8714;SDS011;4394;51.208;8.904;2023-02-18T06:08:23;2.33;;;2.13;;
8714;SDS011;4394;51.208;8.904;2023-02-18T06:11:11;2.20;;;2.00;;
8714;SDS011;4394;51.208;8.904;2023-02-18T06:14:04;2.03;;;1.77;;
8714;SDS011;4394;51.208;8.904;2023-02-18T06:16:52;2.33;;;2.00;;
8714;SDS011;4394;51.208;8.904;2023-02-18T06:19:40;1.90;;;1.70;;
8714;SDS011;4394;51.208;8.904;2023-02-18T06:22:28;2.30;;;1.80;;
8714;SDS011;4394;51.208;8.904;2023-02-18T06:25:16;1.60;;;1.33;;
8714;SDS011;4394;51.208;8.904;2023-02-18T06:28:04;2.07;;;1.70;;
8714;SDS011;4394;51.208;8.904;2023-02-18T06:30:53;1.60;;;1.23;;
8714;SDS011;4394;51.208;8.904;2023-02-18T06:33:41;2.17;;;1.10;;
8714;SDS011;4394;51.208;8.904;2023-02-18T06:36:29;1.10;;;1.00;;
8714;SDS011;4394;51.208;8.904;2023-02-18T06:39:22;1.40;;;1.07;;
8714;SDS011;4394;51.208;8.904;2023-02-18T06:42:09;1.00;;;0.73;;
8714;SDS011;4394;51.208;8.904;2023-02-18T06:44:57;1.07;;;0.73;;
8714;SDS011;4394;51.208;8.904;2023-02-18T06:47:46;0.50;;;0.50;;
8714;SDS011;4394;51.208;8.904;2023-02-18T06:50:34;0.27;;;0.27;;
8714;SDS011;4394;51.208;8.904;2023-02-18T06:53:22;0.77;;;0.40;;
8714;SDS011;4394;51.208;8.904;2023-02-18T06:56:10;1.37;;;0.43;;
8714;SDS011;4394;51.208;8.904;2023-02-18T06:58:56;1.27;;;0.40;;
8714;SDS011;4394;51.208;8.904;2023-02-18T07:01:44;0.17;;;0.10;;
8714;SDS011;4394;51.208;8.904;2023-02-18T07:04:32;0.10;;;0.10;;
8714;SDS011;4394;51.208;8.904;2023-02-18T07:07:21;0.20;;;0.20;;
8714;SDS011;4394;51.208;8.904;2023-02-18T07:10:09;0.80;;;0.30;;
8714;SDS011;4394;51.208;8.904;2023-02-18T07:12:57;0.10;;;0.10;;
8714;SDS011;4394;51.208;8.904;2023-02-18T07:15:47;0.40;;;0.10;;
8714;SDS011;4394;51.208;8.904;2023-02-18T07:18:35;0.10;;;0.10;;
8714;SDS011;4394;51.208;8.904;2023-02-18T07:21:23;0.20;;;0.10;;
8714;SDS011;4394;51.208;8.904;2023-02-18T07:24:11;0.40;;;0.10;;
8714;SDS011;4394;51.208;8.904;2023-02-18T07:26:59;0.10;;;0.10;;
8714;SDS011;4394;51.208;8.904;2023-02-18T07:29:47;0.00;;;0.00;;
8714;SDS011;4394;51.208;8.904;2023-02-18T07:32:37;0.07;;;0.07;;
8714;SDS011;4394;51.208;8.904;2023-02-18T07:35:25;0.00;;;0.00;;
8714;SDS011;4394;51.208;8.904;2023-02-18T07:38:13;0.00;;;0.00;;
8714;SDS011;4394;51.208;8.904;2023-02-18T07:41:01;0.67;;;0.20;;
8714;SDS011;4394;51.208;8.904;2023-02-18T07:43:49;0.10;;;0.00;;
8714;SDS011;4394;51.208;8.904;2023-02-18T07:46:38;0.10;;;0.10;;
8714;SDS011;4394;51.208;8.904;2023-02-18T07:49:28;0.10;;;0.10;;
8714;SDS011;4394;51.208;8.904;2023-02-18T07:52:16;0.10;;;0.10;;
8714;SDS011;4394;51.208;8.904;2023-02-18T07:55:04;0.67;;;0.10;;
8714;SDS011;4394;51.208;8.904;2023-02-18T07:57:52;0.37;;;0.10;;
8714;SDS011;4394;51.208;8.904;2023-02-18T08:00:46;0.00;;;0.00;;
8714;SDS011;4394;51.208;8.904;2023-02-18T08:03:35;0.50;;;0.10;;
8714;SDS011;4394;51.208;8.904;2023-02-18T08:06:27;0.00;;;0.00;;
8714;SDS011;4394;51.208;8.904;2023-02-18T08:09:17;0.00;;;0.00;;
8714;SDS011;4394;51.208;8.904;2023-02-18T08:12:06;0.30;;;0.20;;
8714;SDS011;4394;51.208;8.904;2023-02-18T08:14:54;0.00;;;0.00;;
8714;SDS011;4394;51.208;8.904;2023-02-18T08:17:42;0.10;;;0.10;;
8714;SDS011;4394;51.208;8.904;2023-02-18T08:20:30;0.23;;;0.10;;
8714;SDS011;4394;51.208;8.904;2023-02-18T08:23:23;0.10;;;0.10;;
8714;SDS011;4394;51.208;8.904;2023-02-18T08:26:11;0.10;;;0.07;;
8714;SDS011;4394;51.208;8.904;2023-02-18T08:28:59;0.00;;;0.00;;
8714;SDS011;4394;51.208;8.904;2023-02-18T08:31:47;0.00;;;0.00;;
8714;SDS011;4394;51.208;8.904;2023-02-18T08:34:37;0.10;;;0.10;;
8714;SDS011;4394;51.208;8.904;2023-02-18T08:37:25;0.00;;;0.00;;
8714;SDS011;4394;51.208;8.904;2023-02-18T08:40:15;0.10;;;0.00;;
8714;SDS011;4394;51.208;8.904;2023-02-18T08:43:03;0.00;;;0.00;;
8714;SDS011;4394;51.208;8.904;2023-02-18T08:45:51;0.10;;;0.10;;
8714;SDS011;4394;51.208;8.904;2023-02-18T08:48:39;1.20;;;0.03;;
8714;SDS011;4394;51.208;8.904;2023-02-18T08:51:27;0.07;;;0.00;;
8714;SDS011;4394;51.208;8.904;2023-02-18T08:54:17;0.00;;;0.00;;
8714;SDS011;4394;51.208;8.904;2023-02-18T08:57:06;0.10;;;0.10;;
8714;SDS011;4394;51.208;8.904;2023-02-18T08:59:54;0.73;;;0.27;;
8714;SDS011;4394;51.208;8.904;2023-02-18T09:02:43;0.93;;;0.03;;
8714;SDS011;4394;51.208;8.904;2023-02-18T09:05:32;0.20;;;0.10;;
8714;SDS011;4394;51.208;8.904;2023-02-18T09:08:20;1.57;;;0.33;;
8714;SDS011;4394;51.208;8.904;2023-02-18T09:11:08;0.20;;;0.13;;
8714;SDS011;4394;51.208;8.904;2023-02-18T09:13:59;1.00;;;0.20;;
8714;SDS011;4394;51.208;8.904;2023-02-18T09:16:48;0.70;;;0.27;;
8714;SDS011;4394;51.208;8.904;2023-02-18T09:19:36;0.30;;;0.20;;
8714;SDS011;4394;51.208;8.904;2023-02-18T09:22:24;0.23;;;0.17;;
8714;SDS011;4394;51.208;8.904;2023-02-18T09:25:12;0.20;;;0.20;;
8714;SDS011;4394;51.208;8.904;2023-02-18T09:28:00;0.10;;;0.10;;
8714;SDS011;4394;51.208;8.904;2023-02-18T09:30:50;0.20;;;0.20;;
8714;SDS011;4394;51.208;8.904;2023-02-18T09:33:39;0.10;;;0.10;;
8714;SDS011;4394;51.208;8.904;2023-02-18T09:36:31;0.20;;;0.20;;
8714;SDS011;4394;51.208;8.904;2023-02-18T09:39:20;0.33;;;0.30;;
8714;SDS011;4394;51.208;8.904;2023-02-18T09:42:10;0.87;;;0.57;;
8714;SDS011;4394;51.208;8.904;2023-02-18T09:45:02;1.03;;;0.60;;
8714;SDS011;4394;51.208;8.904;2023-02-18T09:47:54;0.93;;;0.60;;
8714;SDS011;4394;51.208;8.904;2023-02-18T09:50:42;0.70;;;0.60;;
8714;SDS011;4394;51.208;8.904;2023-02-18T09:53:36;0.80;;;0.63;;
8714;SDS011;4394;51.208;8.904;2023-02-18T09:56:26;0.73;;;0.43;;
8714;SDS011;4394;51.208;8.904;2023-02-18T09:59:17;0.40;;;0.40;;
8714;SDS011;4394;51.208;8.904;2023-02-18T10:02:08;0.60;;;0.40;;
8714;SDS011;4394;51.208;8.904;2023-02-18T10:05:03;0.50;;;0.40;;
8714;SDS011;4394;51.208;8.904;2023-02-18T10:07:53;0.40;;;0.40;;
8714;SDS011;4394;51.208;8.904;2023-02-18T10:10:45;0.40;;;0.40;;
8714;SDS011;4394;51.208;8.904;2023-02-18T10:13:33;0.30;;;0.30;;
8714;SDS011;4394;51.208;8.904;2023-02-18T10:16:22;0.60;;;0.30;;
8714;SDS011;4394;51.208;8.904;2023-02-18T10:19:15;0.40;;;0.40;;
8714;SDS011;4394;51.208;8.904;2023-02-18T10:22:11;0.33;;;0.33;;
8714;SDS011;4394;51.208;8.904;2023-02-18T10:25:01;0.80;;;0.60;;
8714;SDS011;4394;51.208;8.904;2023-02-18T10:27:52;0.50;;;0.50;;
8714;SDS011;4394;51.208;8.904;2023-02-18T10:30:41;0.60;;;0.60;;
8714;SDS011;4394;51.208;8.904;2023-02-18T10:33:31;0.57;;;0.53;;
8714;SDS011;4394;51.208;8.904;2023-02-18T10:36:25;0.70;;;0.70;;
8714;SDS011;4394;51.208;8.904;2023-02-18T10:42:31;0.97;;;0.90;;
8714;SDS011;4394;51.208;8.904;2023-02-18T10:45:32;1.13;;;0.90;;
8714;SDS011;4394;51.208;8.904;2023-02-18T10:48:35;2.03;;;1.10;;
8714;SDS011;4394;51.208;8.904;2023-02-18T10:51:38;1.07;;;0.93;;
8714;SDS011;4394;51.208;8.904;2023-02-18T10:54:48;4.27;;;1.57;;
8714;SDS011;4394;51.208;8.904;2023-02-18T10:57:45;1.97;;;1.40;;
8714;SDS011;4394;51.208;8.904;2023-02-18T11:00:35;2.13;;;1.00;;
8714;SDS011;4394;51.208;8.904;2023-02-18T11:03:35;3.20;;;1.03;;
8714;SDS011;4394;51.208;8.904;2023-02-18T11:06:28;1.90;;;1.07;;
8714;SDS011;4394;51.208;8.904;2023-02-18T11:09:24;1.47;;;0.97;;
8714;SDS011;4394;51.208;8.904;2023-02-18T11:12:18;1.23;;;1.10;;
8714;SDS011;4394;51.208;8.904;2023-02-18T11:15:15;0.97;;;0.83;;
8714;SDS011;4394;51.208;8.904;2023-02-18T11:18:11;1.10;;;1.00;;
8714;SDS011;4394;51.208;8.904;2023-02-18T11:21:01;2.97;;;1.30;;
8714;SDS011;4394;51.208;8.904;2023-02-18T11:23:51;3.87;;;1.70;;
8714;SDS011;4394;51.208;8.904;2023-02-18T11:26:40;1.57;;;1.10;;
8714;SDS011;4394;51.208;8.904;2023-02-18T11:29:30;3.50;;;1.20;;
8714;SDS011;4394;51.208;8.904;2023-02-18T11:32:20;1.80;;;1.00;;
8714;SDS011;4394;51.208;8.904;2023-02-18T11:35:15;2.87;;;1.40;;
8714;SDS011;4394;51.208;8.904;2023-02-18T11:38:15;3.67;;;1.23;;
8714;SDS011;4394;51.208;8.904;2023-02-18T11:41:10;1.33;;;0.87;;
8714;SDS011;4394;51.208;8.904;2023-02-18T11:44:01;1.40;;;0.70;;
8714;SDS011;4394;51.208;8.904;2023-02-18T11:46:58;1.37;;;0.80;;
8714;SDS011;4394;51.208;8.904;2023-02-18T11:49:58;1.90;;;0.80;;
8714;SDS011;4394;51.208;8.904;2023-02-18T11:52:48;1.33;;;0.73;;
8714;SDS011;4394;51.208;8.904;2023-02-18T11:55:39;1.47;;;0.73;;
8714;SDS011;4394;51.208;8.904;2023-02-18T11:58:42;0.90;;;0.60;;
8714;SDS011;4394;51.208;8.904;2023-02-18T12:01:35;3.13;;;0.93;;
8714;SDS011;4394;51.208;8.904;2023-02-18T12:04:35;3.20;;;1.33;;
8714;SDS011;4394;51.208;8.904;2023-02-18T12:07:28;0.67;;;0.50;;
8714;SDS011;4394;51.208;8.904;2023-02-18T12:10:22;0.93;;;0.50;;
8714;SDS011;4394;51.208;8.904;2023-02-18T12:13:18;0.87;;;0.60;;
8714;SDS011;4394;51.208;8.904;2023-02-18T12:16:14;0.83;;;0.40;;
8714;SDS011;4394;51.208;8.904;2023-02-18T12:19:15;0.30;;;0.30;;
8714;SDS011;4394;51.208;8.904;2023-02-18T12:22:15;0.80;;;0.30;;
8714;SDS011;4394;51.208;8.904;2023-02-18T12:28:19;0.50;;;0.40;;
8714;SDS011;4394;51.208;8.904;2023-02-18T12:31:33;1.23;;;0.50;;
8714;SDS011;4394;51.208;8.904;2023-02-18T12:34:48;0.40;;;0.40;;
8714;SDS011;4394;51.208;8.904;2023-02-18T12:38:01;0.20;;;0.20;;
8714;SDS011;4394;51.208;8.904;2023-02-18T12:41:15;0.10;;;0.10;;
8714;SDS011;4394;51.208;8.904;2023-02-18T12:44:18;1.03;;;0.20;;
8714;SDS011;4394;51.208;8.904;2023-02-18T12:50:41;0.33;;;0.20;;
8714;SDS011;4394;51.208;8.904;2023-02-18T12:53:40;0.20;;;0.20;;
8714;SDS011;4394;51.208;8.904;2023-02-18T12:56:49;0.23;;;0.20;;
8714;SDS011;4394;51.208;8.904;2023-02-18T13:00:14;0.20;;;0.20;;
8714;SDS011;4394;51.208;8.904;2023-02-18T13:03:33;0.10;;;0.10;;
8714;SDS011;4394;51.208;8.904;2023-02-18T13:06:41;0.10;;;0.10;;
8714;SDS011;4394;51.208;8.904;2023-02-18T13:09:56;0.30;;;0.10;;
8714;SDS011;4394;51.208;8.904;2023-02-18T13:13:07;0.50;;;0.30;;
8714;SDS011;4394;51.208;8.904;2023-02-18T13:15:58;0.97;;;0.20;;
8714;SDS011;4394;51.208;8.904;2023-02-18T13:18:54;0.10;;;0.10;;
8714;SDS011;4394;51.208;8.904;2023-02-18T13:21:49;0.10;;;0.10;;
8714;SDS011;4394;51.208;8.904;2023-02-18T13:24:40;0.10;;;0.10;;
8714;SDS011;4394;51.208;8.904;2023-02-18T13:27:34;2.27;;;0.20;;
8714;SDS011;4394;51.208;8.904;2023-02-18T13:30:26;0.10;;;0.10;;
8714;SDS011;4394;51.208;8.904;2023-02-18T13:33:21;0.10;;;0.10;;
8714;SDS011;4394;51.208;8.904;2023-02-18T13:36:17;0.47;;;0.20;;
8714;SDS011;4394;51.208;8.904;2023-02-18T13:39:20;0.10;;;0.10;;
8714;SDS011;4394;51.208;8.904;2023-02-18T13:42:11;0.10;;;0.10;;
8714;SDS011;4394;51.208;8.904;2023-02-18T13:48:22;0.10;;;0.10;;
8714;SDS011;4394;51.208;8.904;2023-02-18T13:51:14;0.57;;;0.10;;
8714;SDS011;4394;51.208;8.904;2023-02-18T13:54:05;0.10;;;0.10;;
8714;SDS011;4394;51.208;8.904;2023-02-18T13:57:03;0.10;;;0.10;;
8714;SDS011;4394;51.208;8.904;2023-02-18T13:59:55;0.40;;;0.10;;
8714;SDS011;4394;51.208;8.904;2023-02-18T14:02:55;1.57;;;0.47;;
8714;SDS011;4394;51.208;8.904;2023-02-18T14:05:45;0.30;;;0.20;;
8714;SDS011;4394;51.208;8.904;2023-02-18T14:08:34;9.03;;;1.90;;
8714;SDS011;4394;51.208;8.904;2023-02-18T14:11:24;61.47;;;14.23;;
8714;SDS011;4394;51.208;8.904;2023-02-18T14:17:41;0.40;;;0.20;;
8714;SDS011;4394;51.208;8.904;2023-02-18T14:20:45;0.10;;;0.00;;
8714;SDS011;4394;51.208;8.904;2023-02-18T14:23:43;0.10;;;0.10;;
8714;SDS011;4394;51.208;8.904;2023-02-18T14:26:43;0.50;;;0.10;;
8714;SDS011;4394;51.208;8.904;2023-02-18T14:29:33;0.40;;;0.10;;
8714;SDS011;4394;51.208;8.904;2023-02-18T14:32:21;1.33;;;0.20;;
8714;SDS011;4394;51.208;8.904;2023-02-18T14:35:17;1.70;;;0.20;;
8714;SDS011;4394;51.208;8.904;2023-02-18T14:38:17;0.03;;;0.00;;
8714;SDS011;4394;51.208;8.904;2023-02-18T14:41:21;0.20;;;0.10;;
8714;SDS011;4394;51.208;8.904;2023-02-18T14:44:28;0.00;;;0.00;;
8714;SDS011;4394;51.208;8.904;2023-02-18T14:47:27;0.20;;;0.20;;
8714;SDS011;4394;51.208;8.904;2023-02-18T14:50:21;0.43;;;0.20;;
8714;SDS011;4394;51.208;8.904;2023-02-18T14:53:10;0.30;;;0.20;;
8714;SDS011;4394;51.208;8.904;2023-02-18T14:56:05;0.77;;;0.10;;
8714;SDS011;4394;51.208;8.904;2023-02-18T14:58:58;0.20;;;0.17;;
8714;SDS011;4394;51.208;8.904;2023-02-18T15:01:48;0.13;;;0.07;;
8714;SDS011;4394;51.208;8.904;2023-02-18T15:04:40;0.00;;;0.00;;
8714;SDS011;4394;51.208;8.904;2023-02-18T15:07:28;0.10;;;0.10;;
8714;SDS011;4394;51.208;8.904;2023-02-18T15:10:18;0.37;;;0.10;;
8714;SDS011;4394;51.208;8.904;2023-02-18T15:13:08;0.10;;;0.10;;
8714;SDS011;4394;51.208;8.904;2023-02-18T15:16:04;0.20;;;0.20;;
8714;SDS011;4394;51.208;8.904;2023-02-18T15:18:55;0.20;;;0.20;;
8714;SDS011;4394;51.208;8.904;2023-02-18T15:21:46;0.70;;;0.30;;
8714;SDS011;4394;51.208;8.904;2023-02-18T15:24:36;0.17;;;0.10;;
8714;SDS011;4394;51.208;8.904;2023-02-18T15:27:25;1.10;;;0.10;;
8714;SDS011;4394;51.208;8.904;2023-02-18T15:30:22;0.00;;;0.00;;
8714;SDS011;4394;51.208;8.904;2023-02-18T15:33:14;0.30;;;0.30;;
8714;SDS011;4394;51.208;8.904;2023-02-18T15:36:05;0.37;;;0.07;;
8714;SDS011;4394;51.208;8.904;2023-02-18T15:38:59;0.20;;;0.10;;
8714;SDS011;4394;51.208;8.904;2023-02-18T15:41:51;1.03;;;0.23;;
8714;SDS011;4394;51.208;8.904;2023-02-18T15:44:44;0.07;;;0.07;;
8714;SDS011;4394;51.208;8.904;2023-02-18T15:47:34;0.40;;;0.27;;
8714;SDS011;4394;51.208;8.904;2023-02-18T15:50:34;0.20;;;0.20;;
8714;SDS011;4394;51.208;8.904;2023-02-18T15:53:26;0.43;;;0.43;;
8714;SDS011;4394;51.208;8.904;2023-02-18T15:56:14;0.20;;;0.20;;
8714;SDS011;4394;51.208;8.904;2023-02-18T15:59:08;0.30;;;0.20;;
8714;SDS011;4394;51.208;8.904;2023-02-18T16:02:08;0.10;;;0.10;;
8714;SDS011;4394;51.208;8.904;2023-02-18T16:05:11;0.30;;;0.13;;
8714;SDS011;4394;51.208;8.904;2023-02-18T16:08:02;0.20;;;0.20;;
8714;SDS011;4394;51.208;8.904;2023-02-18T16:10:54;0.10;;;0.10;;
8714;SDS011;4394;51.208;8.904;2023-02-18T16:13:48;0.33;;;0.30;;
8714;SDS011;4394;51.208;8.904;2023-02-18T16:16:36;0.40;;;0.40;;
8714;SDS011;4394;51.208;8.904;2023-02-18T16:19:25;0.20;;;0.20;;
8714;SDS011;4394;51.208;8.904;2023-02-18T16:25:23;0.10;;;0.10;;
8714;SDS011;4394;51.208;8.904;2023-02-18T16:28:14;0.40;;;0.40;;
8714;SDS011;4394;51.208;8.904;2023-02-18T16:31:04;0.20;;;0.20;;
8714;SDS011;4394;51.208;8.904;2023-02-18T16:33:52;0.17;;;0.17;;
8714;SDS011;4394;51.208;8.904;2023-02-18T16:36:40;0.37;;;0.30;;
8714;SDS011;4394;51.208;8.904;2023-02-18T16:39:50;0.40;;;0.40;;
8714;SDS011;4394;51.208;8.904;2023-02-18T16:42:40;0.40;;;0.40;;
8714;SDS011;4394;51.208;8.904;2023-02-18T16:45:32;0.30;;;0.30;;
8714;SDS011;4394;51.208;8.904;2023-02-18T16:48:23;0.50;;;0.50;;
8714;SDS011;4394;51.208;8.904;2023-02-18T16:51:15;0.20;;;0.20;;
8714;SDS011;4394;51.208;8.904;2023-02-18T16:54:05;0.57;;;0.40;;
8714;SDS011;4394;51.208;8.904;2023-02-18T16:56:54;1.10;;;0.30;;
8714;SDS011;4394;51.208;8.904;2023-02-18T16:59:42;0.40;;;0.40;;
8714;SDS011;4394;51.208;8.904;2023-02-18T17:02:29;0.30;;;0.30;;
8714;SDS011;4394;51.208;8.904;2023-02-18T17:05:18;0.60;;;0.50;;
8714;SDS011;4394;51.208;8.904;2023-02-18T17:08:16;0.47;;;0.47;;
8714;SDS011;4394;51.208;8.904;2023-02-18T17:11:09;0.40;;;0.40;;
8714;SDS011;4394;51.208;8.904;2023-02-18T17:14:03;1.00;;;0.50;;
8714;SDS011;4394;51.208;8.904;2023-02-18T17:16:52;0.60;;;0.60;;
8714;SDS011;4394;51.208;8.904;2023-02-18T17:19:40;0.70;;;0.50;;
8714;SDS011;4394;51.208;8.904;2023-02-18T17:22:28;0.60;;;0.60;;
8714;SDS011;4394;51.208;8.904;2023-02-18T17:25:17;0.53;;;0.33;;
8714;SDS011;4394;51.208;8.904;2023-02-18T17:28:08;0.80;;;0.60;;
8714;SDS011;4394;51.208;8.904;2023-02-18T17:30:57;0.80;;;0.50;;
8714;SDS011;4394;51.208;8.904;2023-02-18T17:33:45;0.50;;;0.50;;
8714;SDS011;4394;51.208;8.904;2023-02-18T17:36:33;0.40;;;0.40;;
8714;SDS011;4394;51.208;8.904;2023-02-18T17:39:21;0.50;;;0.50;;
8714;SDS011;4394;51.208;8.904;2023-02-18T17:42:09;0.60;;;0.60;;
8714;SDS011;4394;51.208;8.904;2023-02-18T17:44:58;0.60;;;0.60;;
8714;SDS011;4394;51.208;8.904;2023-02-18T17:47:49;0.60;;;0.60;;
8714;SDS011;4394;51.208;8.904;2023-02-18T17:50:39;0.70;;;0.70;;
8714;SDS011;4394;51.208;8.904;2023-02-18T17:53:27;0.77;;;0.60;;
8714;SDS011;4394;51.208;8.904;2023-02-18T17:56:15;1.10;;;1.00;;
8714;SDS011;4394;51.208;8.904;2023-02-18T17:59:03;2.83;;;2.07;;
8714;SDS011;4394;51.208;8.904;2023-02-18T18:01:51;1.77;;;1.50;;
8714;SDS011;4394;51.208;8.904;2023-02-18T18:04:40;2.13;;;1.73;;
8714;SDS011;4394;51.208;8.904;2023-02-18T18:07:28;2.20;;;2.00;;
8714;SDS011;4394;51.208;8.904;2023-02-18T18:10:16;1.93;;;1.67;;
8714;SDS011;4394;51.208;8.904;2023-02-18T18:13:08;2.90;;;2.17;;
8714;SDS011;4394;51.208;8.904;2023-02-18T18:16:01;2.90;;;2.27;;
8714;SDS011;4394;51.208;8.904;2023-02-18T18:18:49;3.13;;;2.20;;
8714;SDS011;4394;51.208;8.904;2023-02-18T18:21:39;2.80;;;2.30;;